sensor_id;sensor_type;location;lat;lon;timestamp;P1;durP1;ratioP1;P2;durP2;ratioP2
81382;SDS011;70834;37.534;-122.308;2023-08-06T00:01:53;4.80;;;2.92;;
81382;SDS011;70834;37.534;-122.308;2023-08-06T00:04:14;5.68;;;2.92;;
81382;SDS011;70834;37.534;-122.308;2023-08-06T00:06:36;6.78;;;3.70;;
81382;SDS011;70834;37.534;-122.308;2023-08-06T00:08:57;8.52;;;3.40;;
81382;SDS011;70834;37.534;-122.308;2023-08-06T00:11:19;6.05;;;3.53;;
81382;SDS011;70834;37.534;-122.308;2023-08-06T00:13:40;6.25;;;3.17;;
81382;SDS011;70834;37.534;-122.308;2023-08-06T00:16:11;6.38;;;3.88;;
81382;SDS011;70834;37.534;-122.308;2023-08-06T00:18:33;6.22;;;3.17;;
81382;SDS011;70834;37.534;-122.308;2023-08-06T00:20:54;7.35;;;3.17;;
81382;SDS011;70834;37.534;-122.308;2023-08-06T00:23:15;7.25;;;3.33;;
81382;SDS011;70834;37.534;-122.308;2023-08-06T00:25:38;7.38;;;3.28;;
81382;SDS011;70834;37.534;-122.308;2023-08-06T00:28:00;6.47;;;4.18;;
81382;SDS011;70834;37.534;-122.308;2023-08-06T00:30:21;6.47;;;3.22;;
81382;SDS011;70834;37.534;-122.308;2023-08-06T00:32:43;6.45;;;3.05;;
81382;SDS011;70834;37.534;-122.308;2023-08-06T00:35:05;8.18;;;3.65;;
81382;SDS011;70834;37.534;-122.308;2023-08-06T00:37:27;5.68;;;3.20;;
81382;SDS011;70834;37.534;-122.308;2023-08-06T00:39:48;8.52;;;3.80;;
81382;SDS011;70834;37.534;-122.308;2023-08-06T00:42:12;6.72;;;3.33;;
81382;SDS011;70834;37.534;-122.308;2023-08-06T00:44:34;10.70;;;3.97;;
81382;SDS011;70834;37.534;-122.308;2023-08-06T00:46:55;9.90;;;5.95;;
81382;SDS011;70834;37.534;-122.308;2023-08-06T00:49:17;6.85;;;4.25;;
81382;SDS011;70834;37.534;-122.308;2023-08-06T00:51:38;7.28;;;3.72;;
81382;SDS011;70834;37.534;-122.308;2023-08-06T00:54:00;5.55;;;4.03;;
81382;SDS011;70834;37.534;-122.308;2023-08-06T00:56:22;6.72;;;3.80;;
81382;SDS011;70834;37.534;-122.308;2023-08-06T00:58:45;10.00;;;4.18;;
81382;SDS011;70834;37.534;-122.308;2023-08-06T01:01:07;7.80;;;3.30;;
81382;SDS011;70834;37.534;-122.308;2023-08-06T01:03:28;7.03;;;3.70;;
81382;SDS011;70834;37.534;-122.308;2023-08-06T01:05:50;9.10;;;4.35;;
81382;SDS011;70834;37.534;-122.308;2023-08-06T01:08:15;8.05;;;3.72;;
81382;SDS011;70834;37.534;-122.308;2023-08-06T01:11:14;8.38;;;3.75;;
81382;SDS011;70834;37.534;-122.308;2023-08-06T01:14:06;9.18;;;3.90;;
81382;SDS011;70834;37.534;-122.308;2023-08-06T01:16:36;6.15;;;3.53;;
81382;SDS011;70834;37.534;-122.308;2023-08-06T01:19:00;9.43;;;3.83;;
81382;SDS011;70834;37.534;-122.308;2023-08-06T01:21:21;9.23;;;3.42;;
81382;SDS011;70834;37.534;-122.308;2023-08-06T01:23:43;9.25;;;3.60;;
81382;SDS011;70834;37.534;-122.308;2023-08-06T01:28:40;11.57;;;3.97;;
81382;SDS011;70834;37.534;-122.308;2023-08-06T01:31:15;7.75;;;3.72;;
81382;SDS011;70834;37.534;-122.308;2023-08-06T01:33:43;9.68;;;3.90;;
81382;SDS011;70834;37.534;-122.308;2023-08-06T01:36:08;6.82;;;3.13;;
81382;SDS011;70834;37.534;-122.308;2023-08-06T01:38:30;10.05;;;3.47;;
81382;SDS011;70834;37.534;-122.308;2023-08-06T01:40:52;8.18;;;3.75;;
81382;SDS011;70834;37.534;-122.308;2023-08-06T01:43:13;11.32;;;4.60;;
81382;SDS011;70834;37.534;-122.308;2023-08-06T01:45:34;9.35;;;4.07;;
81382;SDS011;70834;37.534;-122.308;2023-08-06T01:47:56;8.25;;;3.47;;
81382;SDS011;70834;37.534;-122.308;2023-08-06T01:50:17;8.82;;;3.90;;
81382;SDS011;70834;37.534;-122.308;2023-08-06T01:52:39;7.68;;;3.60;;
81382;SDS011;70834;37.534;-122.308;2023-08-06T01:55:00;10.45;;;4.47;;
81382;SDS011;70834;37.534;-122.308;2023-08-06T01:57:22;11.82;;;4.57;;
81382;SDS011;70834;37.534;-122.308;2023-08-06T01:59:43;9.40;;;4.22;;
81382;SDS011;70834;37.534;-122.308;2023-08-06T02:02:04;6.80;;;3.53;;
81382;SDS011;70834;37.534;-122.308;2023-08-06T02:04:26;11.35;;;5.57;;
81382;SDS011;70834;37.534;-122.308;2023-08-06T02:06:47;10.98;;;5.18;;
81382;SDS011;70834;37.534;-122.308;2023-08-06T02:09:09;7.63;;;3.85;;
81382;SDS011;70834;37.534;-122.308;2023-08-06T02:11:30;10.63;;;4.75;;
81382;SDS011;70834;37.534;-122.308;2023-08-06T02:13:52;9.75;;;4.85;;
81382;SDS011;70834;37.534;-122.308;2023-08-06T02:16:13;10.52;;;4.07;;
81382;SDS011;70834;37.534;-122.308;2023-08-06T02:18:34;11.60;;;6.63;;
81382;SDS011;70834;37.534;-122.308;2023-08-06T02:20:59;12.18;;;5.35;;
81382;SDS011;70834;37.534;-122.308;2023-08-06T02:23:21;10.07;;;4.72;;
81382;SDS011;70834;37.534;-122.308;2023-08-06T02:25:42;12.30;;;5.50;;
81382;SDS011;70834;37.534;-122.308;2023-08-06T02:28:03;13.55;;;7.68;;
81382;SDS011;70834;37.534;-122.308;2023-08-06T02:30:25;13.38;;;5.40;;
81382;SDS011;70834;37.534;-122.308;2023-08-06T02:32:47;10.63;;;4.55;;
81382;SDS011;70834;37.534;-122.308;2023-08-06T02:35:08;8.95;;;4.07;;
81382;SDS011;70834;37.534;-122.308;2023-08-06T02:37:29;10.80;;;4.65;;
81382;SDS011;70834;37.534;-122.308;2023-08-06T02:39:53;11.63;;;5.15;;
81382;SDS011;70834;37.534;-122.308;2023-08-06T02:42:14;13.27;;;4.90;;
81382;SDS011;70834;37.534;-122.308;2023-08-06T02:44:36;13.50;;;5.05;;
81382;SDS011;70834;37.534;-122.308;2023-08-06T02:46:57;13.02;;;4.70;;
81382;SDS011;70834;37.534;-122.308;2023-08-06T02:49:19;11.18;;;4.20;;
81382;SDS011;70834;37.534;-122.308;2023-08-06T02:51:40;9.40;;;4.47;;
81382;SDS011;70834;37.534;-122.308;2023-08-06T02:54:02;12.10;;;4.75;;
81382;SDS011;70834;37.534;-122.308;2023-08-06T02:56:23;10.80;;;4.07;;
81382;SDS011;70834;37.534;-122.308;2023-08-06T02:58:46;13.30;;;5.72;;
81382;SDS011;70834;37.534;-122.308;2023-08-06T03:01:08;10.68;;;4.60;;
81382;SDS011;70834;37.534;-122.308;2023-08-06T03:03:30;11.30;;;4.85;;
81382;SDS011;70834;37.534;-122.308;2023-08-06T03:05:52;14.10;;;4.70;;
81382;SDS011;70834;37.534;-122.308;2023-08-06T03:08:14;12.90;;;5.03;;
81382;SDS011;70834;37.534;-122.308;2023-08-06T03:10:35;10.20;;;4.35;;
81382;SDS011;70834;37.534;-122.308;2023-08-06T03:12:57;12.20;;;4.45;;
81382;SDS011;70834;37.534;-122.308;2023-08-06T03:15:18;14.77;;;5.00;;
81382;SDS011;70834;37.534;-122.308;2023-08-06T03:17:40;13.60;;;4.75;;
81382;SDS011;70834;37.534;-122.308;2023-08-06T03:20:01;13.10;;;5.35;;
81382;SDS011;70834;37.534;-122.308;2023-08-06T03:22:22;12.88;;;4.03;;
81382;SDS011;70834;37.534;-122.308;2023-08-06T03:24:44;14.35;;;5.00;;
81382;SDS011;70834;37.534;-122.308;2023-08-06T03:27:05;10.80;;;4.43;;
81382;SDS011;70834;37.534;-122.308;2023-08-06T03:29:27;16.02;;;5.47;;
81382;SDS011;70834;37.534;-122.308;2023-08-06T03:31:48;10.40;;;5.25;;
81382;SDS011;70834;37.534;-122.308;2023-08-06T03:34:10;14.95;;;5.13;;
81382;SDS011;70834;37.534;-122.308;2023-08-06T03:36:31;12.05;;;4.38;;
81382;SDS011;70834;37.534;-122.308;2023-08-06T03:38:53;11.52;;;5.07;;
81382;SDS011;70834;37.534;-122.308;2023-08-06T03:41:14;13.57;;;4.75;;
81382;SDS011;70834;37.534;-122.308;2023-08-06T03:43:36;13.95;;;4.90;;
81382;SDS011;70834;37.534;-122.308;2023-08-06T03:45:57;16.58;;;4.97;;
81382;SDS011;70834;37.534;-122.308;2023-08-06T03:48:18;16.08;;;5.10;;
81382;SDS011;70834;37.534;-122.308;2023-08-06T03:50:40;16.45;;;5.65;;
81382;SDS011;70834;37.534;-122.308;2023-08-06T03:53:02;17.92;;;5.07;;
81382;SDS011;70834;37.534;-122.308;2023-08-06T03:55:23;17.67;;;4.50;;
81382;SDS011;70834;37.534;-122.308;2023-08-06T03:57:45;14.38;;;5.00;;
81382;SDS011;70834;37.534;-122.308;2023-08-06T04:00:06;14.85;;;4.30;;
81382;SDS011;70834;37.534;-122.308;2023-08-06T04:02:28;13.15;;;4.80;;
81382;SDS011;70834;37.534;-122.308;2023-08-06T04:04:50;18.00;;;4.55;;
81382;SDS011;70834;37.534;-122.308;2023-08-06T04:07:13;12.38;;;4.55;;
81382;SDS011;70834;37.534;-122.308;2023-08-06T04:09:35;13.18;;;4.65;;
81382;SDS011;70834;37.534;-122.308;2023-08-06T04:12:22;15.38;;;5.05;;
81382;SDS011;70834;37.534;-122.308;2023-08-06T04:14:43;13.93;;;4.88;;
81382;SDS011;70834;37.534;-122.308;2023-08-06T04:17:05;15.35;;;4.60;;
81382;SDS011;70834;37.534;-122.308;2023-08-06T04:19:26;14.35;;;5.22;;
81382;SDS011;70834;37.534;-122.308;2023-08-06T04:21:48;18.75;;;5.18;;
81382;SDS011;70834;37.534;-122.308;2023-08-06T04:24:09;17.00;;;4.80;;
81382;SDS011;70834;37.534;-122.308;2023-08-06T04:26:30;16.60;;;4.88;;
81382;SDS011;70834;37.534;-122.308;2023-08-06T04:28:52;18.35;;;4.88;;
81382;SDS011;70834;37.534;-122.308;2023-08-06T04:31:13;13.93;;;4.32;;
81382;SDS011;70834;37.534;-122.308;2023-08-06T04:33:35;16.60;;;4.70;;
81382;SDS011;70834;37.534;-122.308;2023-08-06T04:35:56;13.75;;;4.25;;
81382;SDS011;70834;37.534;-122.308;2023-08-06T04:38:18;17.75;;;5.53;;
81382;SDS011;70834;37.534;-122.308;2023-08-06T04:40:40;13.20;;;4.25;;
81382;SDS011;70834;37.534;-122.308;2023-08-06T04:43:02;9.13;;;4.20;;
81382;SDS011;70834;37.534;-122.308;2023-08-06T04:45:23;16.63;;;5.60;;
81382;SDS011;70834;37.534;-122.308;2023-08-06T04:47:45;18.60;;;5.50;;
81382;SDS011;70834;37.534;-122.308;2023-08-06T04:50:06;20.30;;;5.80;;
81382;SDS011;70834;37.534;-122.308;2023-08-06T04:52:28;11.25;;;4.55;;
81382;SDS011;70834;37.534;-122.308;2023-08-06T04:54:49;15.60;;;5.20;;
81382;SDS011;70834;37.534;-122.308;2023-08-06T04:57:11;16.88;;;5.45;;
81382;SDS011;70834;37.534;-122.308;2023-08-06T04:59:32;16.90;;;5.60;;
81382;SDS011;70834;37.534;-122.308;2023-08-06T05:01:54;15.90;;;5.20;;
81382;SDS011;70834;37.534;-122.308;2023-08-06T05:04:15;16.17;;;5.22;;
81382;SDS011;70834;37.534;-122.308;2023-08-06T05:06:37;18.60;;;5.45;;
81382;SDS011;70834;37.534;-122.308;2023-08-06T05:09:01;10.70;;;3.92;;
81382;SDS011;70834;37.534;-122.308;2023-08-06T05:11:24;16.33;;;4.72;;
81382;SDS011;70834;37.534;-122.308;2023-08-06T05:13:45;17.73;;;5.32;;
81382;SDS011;70834;37.534;-122.308;2023-08-06T05:16:07;13.02;;;4.57;;
81382;SDS011;70834;37.534;-122.308;2023-08-06T05:18:28;12.43;;;4.70;;
81382;SDS011;70834;37.534;-122.308;2023-08-06T05:20:50;19.98;;;5.20;;
81382;SDS011;70834;37.534;-122.308;2023-08-06T05:23:12;18.80;;;5.40;;
81382;SDS011;70834;37.534;-122.308;2023-08-06T05:25:36;22.38;;;6.47;;
81382;SDS011;70834;37.534;-122.308;2023-08-06T05:27:58;11.95;;;4.20;;
81382;SDS011;70834;37.534;-122.308;2023-08-06T05:30:21;15.13;;;4.72;;
81382;SDS011;70834;37.534;-122.308;2023-08-06T05:32:43;14.70;;;4.72;;
81382;SDS011;70834;37.534;-122.308;2023-08-06T05:35:04;21.48;;;5.93;;
81382;SDS011;70834;37.534;-122.308;2023-08-06T05:37:26;20.98;;;5.30;;
81382;SDS011;70834;37.534;-122.308;2023-08-06T05:39:48;18.42;;;4.97;;
81382;SDS011;70834;37.534;-122.308;2023-08-06T05:42:09;16.75;;;5.43;;
81382;SDS011;70834;37.534;-122.308;2023-08-06T05:44:31;16.40;;;5.00;;
81382;SDS011;70834;37.534;-122.308;2023-08-06T05:46:52;15.30;;;4.40;;
81382;SDS011;70834;37.534;-122.308;2023-08-06T05:49:14;20.50;;;6.13;;
81382;SDS011;70834;37.534;-122.308;2023-08-06T05:51:35;17.00;;;4.40;;
81382;SDS011;70834;37.534;-122.308;2023-08-06T05:53:57;20.25;;;5.95;;
81382;SDS011;70834;37.534;-122.308;2023-08-06T05:56:18;19.95;;;6.55;;
81382;SDS011;70834;37.534;-122.308;2023-08-06T05:58:40;16.85;;;5.35;;
81382;SDS011;70834;37.534;-122.308;2023-08-06T06:01:01;17.45;;;5.38;;
81382;SDS011;70834;37.534;-122.308;2023-08-06T06:03:23;20.23;;;6.32;;
81382;SDS011;70834;37.534;-122.308;2023-08-06T06:05:44;16.63;;;5.68;;
81382;SDS011;70834;37.534;-122.308;2023-08-06T06:08:06;20.35;;;5.43;;
81382;SDS011;70834;37.534;-122.308;2023-08-06T06:10:27;20.40;;;5.10;;
81382;SDS011;70834;37.534;-122.308;2023-08-06T06:12:48;17.55;;;5.07;;
81382;SDS011;70834;37.534;-122.308;2023-08-06T06:15:10;19.85;;;5.63;;
81382;SDS011;70834;37.534;-122.308;2023-08-06T06:17:31;16.80;;;4.20;;
81382;SDS011;70834;37.534;-122.308;2023-08-06T06:19:53;22.67;;;7.07;;
81382;SDS011;70834;37.534;-122.308;2023-08-06T06:22:15;20.50;;;5.22;;
81382;SDS011;70834;37.534;-122.308;2023-08-06T06:24:36;21.30;;;4.47;;
81382;SDS011;70834;37.534;-122.308;2023-08-06T06:26:57;19.73;;;5.60;;
81382;SDS011;70834;37.534;-122.308;2023-08-06T06:29:19;18.65;;;5.55;;
81382;SDS011;70834;37.534;-122.308;2023-08-06T06:31:41;19.27;;;4.45;;
81382;SDS011;70834;37.534;-122.308;2023-08-06T06:34:02;15.00;;;4.60;;
81382;SDS011;70834;37.534;-122.308;2023-08-06T06:36:23;16.33;;;4.95;;
81382;SDS011;70834;37.534;-122.308;2023-08-06T06:38:45;14.82;;;4.43;;
81382;SDS011;70834;37.534;-122.308;2023-08-06T06:41:06;20.85;;;6.15;;
81382;SDS011;70834;37.534;-122.308;2023-08-06T06:43:28;13.48;;;5.13;;
81382;SDS011;70834;37.534;-122.308;2023-08-06T06:45:53;12.43;;;4.18;;
81382;SDS011;70834;37.534;-122.308;2023-08-06T06:48:21;11.68;;;4.18;;
81382;SDS011;70834;37.534;-122.308;2023-08-06T06:50:43;12.10;;;4.13;;
81382;SDS011;70834;37.534;-122.308;2023-08-06T06:53:08;10.82;;;4.03;;
81382;SDS011;70834;37.534;-122.308;2023-08-06T06:55:30;17.05;;;4.43;;
81382;SDS011;70834;37.534;-122.308;2023-08-06T06:57:51;13.43;;;4.57;;
81382;SDS011;70834;37.534;-122.308;2023-08-06T07:00:12;12.77;;;3.90;;
81382;SDS011;70834;37.534;-122.308;2023-08-06T07:02:34;13.00;;;4.57;;
81382;SDS011;70834;37.534;-122.308;2023-08-06T07:04:56;12.05;;;4.45;;
81382;SDS011;70834;37.534;-122.308;2023-08-06T07:07:17;12.25;;;3.75;;
81382;SDS011;70834;37.534;-122.308;2023-08-06T07:09:38;15.32;;;4.80;;
81382;SDS011;70834;37.534;-122.308;2023-08-06T07:12:00;13.38;;;4.97;;
81382;SDS011;70834;37.534;-122.308;2023-08-06T07:14:22;13.85;;;4.57;;
81382;SDS011;70834;37.534;-122.308;2023-08-06T07:16:46;13.57;;;4.30;;
81382;SDS011;70834;37.534;-122.308;2023-08-06T07:19:07;17.23;;;4.28;;
81382;SDS011;70834;37.534;-122.308;2023-08-06T07:21:28;13.20;;;4.53;;
81382;SDS011;70834;37.534;-122.308;2023-08-06T07:23:50;15.05;;;3.92;;
81382;SDS011;70834;37.534;-122.308;2023-08-06T07:26:11;17.05;;;4.80;;
81382;SDS011;70834;37.534;-122.308;2023-08-06T07:28:33;16.80;;;4.72;;
81382;SDS011;70834;37.534;-122.308;2023-08-06T07:30:54;17.10;;;4.95;;
81382;SDS011;70834;37.534;-122.308;2023-08-06T07:33:16;14.98;;;4.68;;
81382;SDS011;70834;37.534;-122.308;2023-08-06T07:35:37;14.45;;;4.07;;
81382;SDS011;70834;37.534;-122.308;2023-08-06T07:37:59;14.15;;;3.85;;
81382;SDS011;70834;37.534;-122.308;2023-08-06T07:40:21;13.18;;;4.38;;
81382;SDS011;70834;37.534;-122.308;2023-08-06T07:42:42;13.57;;;4.18;;
81382;SDS011;70834;37.534;-122.308;2023-08-06T07:45:04;14.45;;;4.72;;
81382;SDS011;70834;37.534;-122.308;2023-08-06T07:47:26;16.00;;;4.28;;
81382;SDS011;70834;37.534;-122.308;2023-08-06T07:49:47;20.17;;;5.43;;
81382;SDS011;70834;37.534;-122.308;2023-08-06T07:52:09;16.15;;;5.03;;
81382;SDS011;70834;37.534;-122.308;2023-08-06T07:54:31;18.00;;;5.13;;
81382;SDS011;70834;37.534;-122.308;2023-08-06T07:56:52;20.55;;;4.78;;
81382;SDS011;70834;37.534;-122.308;2023-08-06T07:59:14;18.08;;;4.65;;
81382;SDS011;70834;37.534;-122.308;2023-08-06T08:01:35;21.38;;;5.85;;
81382;SDS011;70834;37.534;-122.308;2023-08-06T08:03:57;22.80;;;4.85;;
81382;SDS011;70834;37.534;-122.308;2023-08-06T08:06:18;16.95;;;4.50;;
81382;SDS011;70834;37.534;-122.308;2023-08-06T08:08:39;16.02;;;4.40;;
81382;SDS011;70834;37.534;-122.308;2023-08-06T08:11:01;22.20;;;4.95;;
81382;SDS011;70834;37.534;-122.308;2023-08-06T08:13:22;24.17;;;5.70;;
81382;SDS011;70834;37.534;-122.308;2023-08-06T08:15:44;15.38;;;5.10;;
81382;SDS011;70834;37.534;-122.308;2023-08-06T08:18:06;19.02;;;4.65;;
81382;SDS011;70834;37.534;-122.308;2023-08-06T08:20:27;25.17;;;5.85;;
81382;SDS011;70834;37.534;-122.308;2023-08-06T08:22:53;20.10;;;4.85;;
81382;SDS011;70834;37.534;-122.308;2023-08-06T08:25:15;18.60;;;4.30;;
81382;SDS011;70834;37.534;-122.308;2023-08-06T08:27:37;20.33;;;5.13;;
81382;SDS011;70834;37.534;-122.308;2023-08-06T08:29:58;22.70;;;5.38;;
81382;SDS011;70834;37.534;-122.308;2023-08-06T08:32:19;22.00;;;5.78;;
81382;SDS011;70834;37.534;-122.308;2023-08-06T08:34:41;15.43;;;4.20;;
81382;SDS011;70834;37.534;-122.308;2023-08-06T08:37:02;13.48;;;4.88;;
81382;SDS011;70834;37.534;-122.308;2023-08-06T08:39:26;19.70;;;4.80;;
81382;SDS011;70834;37.534;-122.308;2023-08-06T08:41:47;19.42;;;4.35;;
81382;SDS011;70834;37.534;-122.308;2023-08-06T08:44:09;22.15;;;5.15;;
81382;SDS011;70834;37.534;-122.308;2023-08-06T08:46:31;20.17;;;4.70;;
81382;SDS011;70834;37.534;-122.308;2023-08-06T08:48:54;20.27;;;4.75;;
81382;SDS011;70834;37.534;-122.308;2023-08-06T08:51:16;21.10;;;4.97;;
81382;SDS011;70834;37.534;-122.308;2023-08-06T08:53:38;17.10;;;5.32;;
81382;SDS011;70834;37.534;-122.308;2023-08-06T08:56:00;23.85;;;5.28;;
81382;SDS011;70834;37.534;-122.308;2023-08-06T08:58:22;18.25;;;4.15;;
81382;SDS011;70834;37.534;-122.308;2023-08-06T09:00:43;18.77;;;4.28;;
81382;SDS011;70834;37.534;-122.308;2023-08-06T09:03:08;17.05;;;4.43;;
81382;SDS011;70834;37.534;-122.308;2023-08-06T09:05:30;15.15;;;4.05;;
81382;SDS011;70834;37.534;-122.308;2023-08-06T09:07:52;16.27;;;4.05;;
81382;SDS011;70834;37.534;-122.308;2023-08-06T09:10:16;17.83;;;4.55;;
81382;SDS011;70834;37.534;-122.308;2023-08-06T09:12:40;16.95;;;4.90;;
81382;SDS011;70834;37.534;-122.308;2023-08-06T09:15:03;12.52;;;4.05;;
81382;SDS011;70834;37.534;-122.308;2023-08-06T09:17:25;17.60;;;4.28;;
81382;SDS011;70834;37.534;-122.308;2023-08-06T09:19:48;15.25;;;3.80;;
81382;SDS011;70834;37.534;-122.308;2023-08-06T09:22:11;11.23;;;3.75;;
81382;SDS011;70834;37.534;-122.308;2023-08-06T09:24:34;17.10;;;4.32;;
81382;SDS011;70834;37.534;-122.308;2023-08-06T09:29:23;13.95;;;3.92;;
81382;SDS011;70834;37.534;-122.308;2023-08-06T09:31:48;13.30;;;3.97;;
81382;SDS011;70834;37.534;-122.308;2023-08-06T09:34:23;16.45;;;3.92;;
81382;SDS011;70834;37.534;-122.308;2023-08-06T09:36:51;11.98;;;3.53;;
81382;SDS011;70834;37.534;-122.308;2023-08-06T09:39:17;16.38;;;4.93;;
81382;SDS011;70834;37.534;-122.308;2023-08-06T09:41:40;8.30;;;2.97;;
81382;SDS011;70834;37.534;-122.308;2023-08-06T09:44:02;14.10;;;4.35;;
81382;SDS011;70834;37.534;-122.308;2023-08-06T09:46:23;13.73;;;3.70;;
81382;SDS011;70834;37.534;-122.308;2023-08-06T09:48:45;9.93;;;3.92;;
81382;SDS011;70834;37.534;-122.308;2023-08-06T09:51:08;9.18;;;3.55;;
81382;SDS011;70834;37.534;-122.308;2023-08-06T09:53:30;10.52;;;3.70;;
81382;SDS011;70834;37.534;-122.308;2023-08-06T09:55:54;13.98;;;4.63;;
81382;SDS011;70834;37.534;-122.308;2023-08-06T09:58:16;12.43;;;3.70;;
81382;SDS011;70834;37.534;-122.308;2023-08-06T10:00:37;11.25;;;3.88;;
81382;SDS011;70834;37.534;-122.308;2023-08-06T10:02:59;10.80;;;4.78;;
81382;SDS011;70834;37.534;-122.308;2023-08-06T10:05:22;10.48;;;3.22;;
81382;SDS011;70834;37.534;-122.308;2023-08-06T10:07:44;9.93;;;3.80;;
81382;SDS011;70834;37.534;-122.308;2023-08-06T10:10:07;12.48;;;3.40;;
81382;SDS011;70834;37.534;-122.308;2023-08-06T10:12:29;8.90;;;3.08;;
81382;SDS011;70834;37.534;-122.308;2023-08-06T10:14:55;9.73;;;3.30;;
81382;SDS011;70834;37.534;-122.308;2023-08-06T10:17:20;11.82;;;2.65;;
81382;SDS011;70834;37.534;-122.308;2023-08-06T10:19:43;11.77;;;3.25;;
81382;SDS011;70834;37.534;-122.308;2023-08-06T10:22:09;10.98;;;3.30;;
81382;SDS011;70834;37.534;-122.308;2023-08-06T10:24:47;11.73;;;3.28;;
81382;SDS011;70834;37.534;-122.308;2023-08-06T10:27:11;9.55;;;3.15;;
81382;SDS011;70834;37.534;-122.308;2023-08-06T10:29:36;12.90;;;3.58;;
81382;SDS011;70834;37.534;-122.308;2023-08-06T10:32:01;9.30;;;2.63;;
81382;SDS011;70834;37.534;-122.308;2023-08-06T10:34:23;6.80;;;2.47;;
81382;SDS011;70834;37.534;-122.308;2023-08-06T10:36:44;12.63;;;2.95;;
81382;SDS011;70834;37.534;-122.308;2023-08-06T10:39:06;10.80;;;2.70;;
81382;SDS011;70834;37.534;-122.308;2023-08-06T10:41:33;8.90;;;2.42;;
81382;SDS011;70834;37.534;-122.308;2023-08-06T10:44:07;10.07;;;2.40;;
81382;SDS011;70834;37.534;-122.308;2023-08-06T10:46:29;10.32;;;2.90;;
81382;SDS011;70834;37.534;-122.308;2023-08-06T10:48:51;12.57;;;3.30;;
81382;SDS011;70834;37.534;-122.308;2023-08-06T10:51:13;7.75;;;3.03;;
81382;SDS011;70834;37.534;-122.308;2023-08-06T10:53:38;12.00;;;4.00;;
81382;SDS011;70834;37.534;-122.308;2023-08-06T10:58:38;12.00;;;3.65;;
81382;SDS011;70834;37.534;-122.308;2023-08-06T11:01:00;9.70;;;3.10;;
81382;SDS011;70834;37.534;-122.308;2023-08-06T11:03:22;10.02;;;3.60;;
81382;SDS011;70834;37.534;-122.308;2023-08-06T11:05:50;11.73;;;3.28;;
81382;SDS011;70834;37.534;-122.308;2023-08-06T11:08:11;9.50;;;3.45;;
81382;SDS011;70834;37.534;-122.308;2023-08-06T11:10:33;11.93;;;4.00;;
81382;SDS011;70834;37.534;-122.308;2023-08-06T11:12:55;15.40;;;3.95;;
81382;SDS011;70834;37.534;-122.308;2023-08-06T11:15:22;11.32;;;3.45;;
81382;SDS011;70834;37.534;-122.308;2023-08-06T11:17:44;10.15;;;3.08;;
81382;SDS011;70834;37.534;-122.308;2023-08-06T11:20:08;10.55;;;3.10;;
81382;SDS011;70834;37.534;-122.308;2023-08-06T11:22:30;11.60;;;3.30;;
81382;SDS011;70834;37.534;-122.308;2023-08-06T11:24:53;6.38;;;2.22;;
81382;SDS011;70834;37.534;-122.308;2023-08-06T11:27:15;8.15;;;3.03;;
81382;SDS011;70834;37.534;-122.308;2023-08-06T11:29:38;10.10;;;3.15;;
81382;SDS011;70834;37.534;-122.308;2023-08-06T11:32:08;8.15;;;2.55;;
81382;SDS011;70834;37.534;-122.308;2023-08-06T11:34:30;9.27;;;2.85;;
81382;SDS011;70834;37.534;-122.308;2023-08-06T11:36:52;10.60;;;3.45;;
81382;SDS011;70834;37.534;-122.308;2023-08-06T11:39:13;7.72;;;2.80;;
81382;SDS011;70834;37.534;-122.308;2023-08-06T11:41:37;11.52;;;3.70;;
81382;SDS011;70834;37.534;-122.308;2023-08-06T11:44:00;8.05;;;3.38;;
81382;SDS011;70834;37.534;-122.308;2023-08-06T11:46:21;13.43;;;3.70;;
81382;SDS011;70834;37.534;-122.308;2023-08-06T11:48:56;9.48;;;3.17;;
81382;SDS011;70834;37.534;-122.308;2023-08-06T11:51:22;10.60;;;4.10;;
81382;SDS011;70834;37.534;-122.308;2023-08-06T11:53:51;9.65;;;3.42;;
81382;SDS011;70834;37.534;-122.308;2023-08-06T11:56:23;14.38;;;3.85;;
81382;SDS011;70834;37.534;-122.308;2023-08-06T11:58:46;6.72;;;3.00;;
81382;SDS011;70834;37.534;-122.308;2023-08-06T12:01:07;8.45;;;3.00;;
81382;SDS011;70834;37.534;-122.308;2023-08-06T12:03:29;10.63;;;2.78;;
81382;SDS011;70834;37.534;-122.308;2023-08-06T12:05:53;9.30;;;3.10;;
81382;SDS011;70834;37.534;-122.308;2023-08-06T12:08:14;9.52;;;2.70;;
81382;SDS011;70834;37.534;-122.308;2023-08-06T12:10:36;7.13;;;2.40;;
81382;SDS011;70834;37.534;-122.308;2023-08-06T12:12:57;10.35;;;3.25;;
81382;SDS011;70834;37.534;-122.308;2023-08-06T12:15:19;11.40;;;3.45;;
81382;SDS011;70834;37.534;-122.308;2023-08-06T12:17:40;6.35;;;2.90;;
81382;SDS011;70834;37.534;-122.308;2023-08-06T12:20:03;7.45;;;2.42;;
81382;SDS011;70834;37.534;-122.308;2023-08-06T12:22:27;4.10;;;1.80;;
81382;SDS011;70834;37.534;-122.308;2023-08-06T12:24:51;6.43;;;2.40;;
81382;SDS011;70834;37.534;-122.308;2023-08-06T12:27:13;6.50;;;2.28;;
81382;SDS011;70834;37.534;-122.308;2023-08-06T12:29:43;8.05;;;2.47;;
81382;SDS011;70834;37.534;-122.308;2023-08-06T12:32:05;7.13;;;2.85;;
81382;SDS011;70834;37.534;-122.308;2023-08-06T12:34:26;8.88;;;2.75;;
81382;SDS011;70834;37.534;-122.308;2023-08-06T12:36:48;6.35;;;2.40;;
81382;SDS011;70834;37.534;-122.308;2023-08-06T12:39:09;7.80;;;2.50;;
81382;SDS011;70834;37.534;-122.308;2023-08-06T12:41:31;8.75;;;2.90;;
81382;SDS011;70834;37.534;-122.308;2023-08-06T12:43:52;7.05;;;2.80;;
81382;SDS011;70834;37.534;-122.308;2023-08-06T12:46:14;9.00;;;2.85;;
81382;SDS011;70834;37.534;-122.308;2023-08-06T12:48:35;7.57;;;2.70;;
81382;SDS011;70834;37.534;-122.308;2023-08-06T12:50:56;12.35;;;3.40;;
81382;SDS011;70834;37.534;-122.308;2023-08-06T12:53:18;9.93;;;2.83;;
81382;SDS011;70834;37.534;-122.308;2023-08-06T12:55:42;7.15;;;2.60;;
81382;SDS011;70834;37.534;-122.308;2023-08-06T12:58:03;9.38;;;2.88;;
81382;SDS011;70834;37.534;-122.308;2023-08-06T13:00:27;7.45;;;2.40;;
81382;SDS011;70834;37.534;-122.308;2023-08-06T13:02:49;5.45;;;2.38;;
81382;SDS011;70834;37.534;-122.308;2023-08-06T13:05:10;9.95;;;3.90;;
81382;SDS011;70834;37.534;-122.308;2023-08-06T13:07:32;8.20;;;3.22;;
81382;SDS011;70834;37.534;-122.308;2023-08-06T13:09:53;10.13;;;3.88;;
81382;SDS011;70834;37.534;-122.308;2023-08-06T13:12:15;10.90;;;3.45;;
81382;SDS011;70834;37.534;-122.308;2023-08-06T13:14:39;9.02;;;3.33;;
81382;SDS011;70834;37.534;-122.308;2023-08-06T13:17:00;11.82;;;4.55;;
81382;SDS011;70834;37.534;-122.308;2023-08-06T13:19:22;8.68;;;2.90;;
81382;SDS011;70834;37.534;-122.308;2023-08-06T13:24:10;8.88;;;2.80;;
81382;SDS011;70834;37.534;-122.308;2023-08-06T13:26:31;8.30;;;3.00;;
81382;SDS011;70834;37.534;-122.308;2023-08-06T13:28:53;6.78;;;2.60;;
81382;SDS011;70834;37.534;-122.308;2023-08-06T13:31:14;10.60;;;3.15;;
81382;SDS011;70834;37.534;-122.308;2023-08-06T13:33:35;9.45;;;3.25;;
81382;SDS011;70834;37.534;-122.308;2023-08-06T13:35:57;9.52;;;2.70;;
81382;SDS011;70834;37.534;-122.308;2023-08-06T13:38:18;10.52;;;3.60;;
81382;SDS011;70834;37.534;-122.308;2023-08-06T13:40:40;10.27;;;3.65;;
81382;SDS011;70834;37.534;-122.308;2023-08-06T13:43:02;10.10;;;3.58;;
81382;SDS011;70834;37.534;-122.308;2023-08-06T13:45:24;12.82;;;3.60;;